Time;durP1;ratioP1;P1;durP2;ratioP2;P2;SDS_P1;SDS_P2;PMS_P1;PMS_P2;Temp;Humidity;BMP_temperature;BMP_pressure;BME280_temperature;BME280_humidity;BME280_pressure;Samples;Min_cycle;Max_cycle;Signal;HPM_P1;HPM_P2
2022/08/20 00:00:43;;;;;;;;;;;;;;;30.09;100.00;101436.38;5069024;28;1922;-82
2022/08/20 00:03:12;;;;;;;;;;;;;;;29.03;100.00;101430.44;5056856;28;910;-83
2022/08/20 00:05:44;;;;;;;;;;;;;;;28.63;100.00;101431.94;5060345;28;1930;-83
2022/08/20 00:08:11;;;;;;;;;;;;;;;29.25;100.00;101438.22;5076031;28;1922;-83
2022/08/20 00:10:40;;;;;;;;;;;;;;;29.83;100.00;101432.13;5075344;28;1938;-83
2022/08/20 00:13:09;;;;;;;;;;;;;;;30.18;100.00;101427.50;5077887;28;823;-83
2022/08/20 00:15:37;;;;;;;;;;;;;;;29.36;100.00;101424.47;5076852;28;1744;-83
2022/08/20 00:18:04;;;;;;;;;;;;;;;29.39;100.00;101425.91;5077346;28;975;-84
2022/08/20 00:20:37;;;;;;;;;;;;;;;29.02;100.00;101423.22;5080791;28;1574;-84
2022/08/20 00:23:04;;;;;;;;;;;;;;;28.75;100.00;101419.88;5078444;28;897;-82
2022/08/20 00:25:30;;;;;;;;;;;;;;;28.81;100.00;101412.63;5073530;28;1902;-83
2022/08/20 00:27:57;;;;;;;;;;;;;;;29.49;100.00;101404.09;5077380;28;1890;-83
2022/08/20 00:30:25;;;;;;;;;;;;;;;30.36;100.00;101407.16;5075174;28;1884;-83
2022/08/20 00:33:02;;;;;;;;;;;;;;;29.96;100.00;101409.75;5068739;28;1622;-83
2022/08/20 00:35:30;;;;;;;;;;;;;;;30.06;100.00;101398.94;5061169;28;1803;-83
2022/08/20 00:37:57;;;;;;;;;;;;;;;29.53;100.00;101399.81;5076675;28;1819;-82
2022/08/20 00:40:27;;;;;;;;;;;;;;;30.25;100.00;101391.41;5079922;28;1177;-83
2022/08/20 00:42:57;;;;;;;;;;;;;;;30.04;100.00;101383.66;5066743;28;1875;-82
2022/08/20 00:45:26;;;;;;;;;;;;;;;30.23;100.00;101380.59;5071400;28;1931;-82
2022/08/20 00:47:55;;;;;;;;;;;;;;;29.93;100.00;101371.50;5079901;28;1890;-83
2022/08/20 00:50:31;;;;;;;;;;;;;;;29.98;100.00;101366.94;5080059;28;1898;-83
2022/08/20 00:52:58;;;;;;;;;;;;;;;30.46;100.00;101368.66;5079884;28;2000;-83
2022/08/20 00:55:25;;;;;;;;;;;;;;;30.03;100.00;101371.75;5080632;28;806;-83
2022/08/20 00:57:57;;;;;;;;;;;;;;;30.18;100.00;101374.06;5078903;28;1996;-82
2022/08/20 01:00:39;;;;;;;;;;;;;;;30.14;100.00;101382.03;5079993;28;1204;-82
2022/08/20 01:03:08;;;;;;;;;;;;;;;29.58;100.00;101388.88;5079880;28;1862;-83
2022/08/20 01:05:39;;;;;;;;;;;;;;;28.64;100.00;101392.22;5081604;28;806;-82
2022/08/20 01:08:06;;;;;;;;;;;;;;;29.13;100.00;101405.03;5078075;28;1921;-83
2022/08/20 01:10:38;;;;;;;;;;;;;;;28.72;100.00;101395.50;5068370;28;1617;-83
2022/08/20 01:13:09;;;;;;;;;;;;;;;28.56;100.00;101388.66;5079812;28;1902;-84
2022/08/20 01:15:39;;;;;;;;;;;;;;;28.76;100.00;101393.13;5062714;28;1798;-82
2022/08/20 01:18:09;;;;;;;;;;;;;;;28.98;100.00;101391.59;5094690;28;1886;-83
2022/08/20 01:20:40;;;;;;;;;;;;;;;28.82;100.00;101395.81;5059188;28;1193;-83
2022/08/20 01:23:34;;;;;;;;;;;;;;;28.10;100.00;101391.00;5067453;28;2048;-84
2022/08/20 01:26:11;;;;;;;;;;;;;;;28.49;100.00;101400.84;5059814;28;925;-83
2022/08/20 01:28:46;;;;;;;;;;;;;;;27.97;100.00;101403.84;5075281;28;1946;-84
2022/08/20 01:31:19;;;;;;;;;;;;;;;28.11;100.00;101407.31;5079037;28;1184;-83
2022/08/20 01:33:45;;;;;;;;;;;;;;;27.67;100.00;101414.69;5076940;28;2046;-83
2022/08/20 01:36:14;;;;;;;;;;;;;;;28.04;100.00;101412.06;5070690;28;1895;-83
2022/08/20 01:38:40;;;;;;;;;;;;;;;27.62;100.00;101408.09;5070701;28;1952;-83
2022/08/20 01:41:17;;;;;;;;;;;;;;;28.40;100.00;101405.81;5074833;28;1931;-84
2022/08/20 01:43:45;;;;;;;;;;;;;;;28.58;100.00;101402.22;5077454;28;804;-82
2022/08/20 01:46:12;;;;;;;;;;;;;;;28.73;100.00;101399.13;5077217;28;1886;-83
2022/08/20 01:48:40;;;;;;;;;;;;;;;28.65;100.00;101407.69;5059619;28;881;-83
2022/08/20 01:51:14;;;;;;;;;;;;;;;27.79;100.00;101416.72;5072032;28;1906;-83
2022/08/20 01:53:48;;;;;;;;;;;;;;;28.12;100.00;101410.94;5076410;28;1799;-83
2022/08/20 01:56:18;;;;;;;;;;;;;;;28.55;100.00;101417.34;5087214;28;1350;-82
2022/08/20 01:58:50;;;;;;;;;;;;;;;28.81;100.00;101413.47;5074562;28;1882;-83
2022/08/20 02:01:33;;;;;;;;;;;;;;;28.94;100.00;101408.88;5059480;28;1966;-83
2022/08/20 02:04:02;;;;;;;;;;;;;;;28.97;100.00;101405.63;5059425;28;1962;-83
2022/08/20 02:06:30;;;;;;;;;;;;;;;28.73;100.00;101404.63;5066438;28;1907;-82
2022/08/20 02:08:59;;;;;;;;;;;;;;;28.96;100.00;101412.25;5078108;28;1482;-83
2022/08/20 02:11:28;;;;;;;;;;;;;;;28.98;100.00;101415.59;5076253;28;1973;-83
2022/08/20 02:13:57;;;;;;;;;;;;;;;28.63;100.00;101415.38;5058994;28;893;-83
2022/08/20 02:16:30;;;;;;;;;;;;;;;28.08;100.00;101405.03;5076557;28;1562;-82
2022/08/20 02:19:00;;;;;;;;;;;;;;;29.17;100.00;101414.53;5078723;28;1914;-82
2022/08/20 02:21:31;;;;;;;;;;;;;;;28.79;100.00;101411.97;5057859;28;1957;-82
2022/08/20 02:23:57;;;;;;;;;;;;;;;28.69;100.00;101411.66;5077895;28;811;-83
2022/08/20 02:26:24;;;;;;;;;;;;;;;28.89;100.00;101415.06;5077940;28;1906;-83
2022/08/20 02:28:52;;;;;;;;;;;;;;;28.56;100.00;101421.78;5074830;28;1461;-83
2022/08/20 02:31:20;;;;;;;;;;;;;;;29.02;100.00;101416.84;5056754;28;2018;-84
2022/08/20 02:33:48;;;;;;;;;;;;;;;29.01;100.00;101424.31;5062756;28;1973;-83
2022/08/20 02:36:17;;;;;;;;;;;;;;;29.48;100.00;101421.78;5079053;28;803;-83
2022/08/20 02:38:45;;;;;;;;;;;;;;;29.05;100.00;101419.16;5060178;28;1890;-83
2022/08/20 02:41:12;;;;;;;;;;;;;;;29.47;100.00;101427.50;5059417;28;1891;-83
2022/08/20 02:43:38;;;;;;;;;;;;;;;29.04;100.00;101422.97;5065396;28;1673;-84
2022/08/20 02:46:05;;;;;;;;;;;;;;;28.92;100.00;101422.09;5076644;28;1898;-84
2022/08/20 02:48:32;;;;;;;;;;;;;;;29.25;100.00;101418.88;5078291;28;876;-84
2022/08/20 02:51:01;;;;;;;;;;;;;;;28.75;100.00;101424.56;5079141;28;1287;-83
2022/08/20 02:53:40;;;;;;;;;;;;;;;28.56;100.00;101429.22;5076424;28;1641;-83
2022/08/20 02:56:07;;;;;;;;;;;;;;;28.62;100.00;101424.72;5076982;28;1889;-83
2022/08/20 02:58:34;;;;;;;;;;;;;;;28.82;100.00;101420.66;5077472;28;1870;-83
2022/08/20 03:01:02;;;;;;;;;;;;;;;28.87;100.00;101419.97;5077081;28;1811;-83
2022/08/20 03:03:28;;;;;;;;;;;;;;;28.76;100.00;101416.06;5078053;28;1982;-83
2022/08/20 03:05:56;;;;;;;;;;;;;;;29.37;100.00;101414.25;5066239;28;1863;-83
2022/08/20 03:08:24;;;;;;;;;;;;;;;28.38;100.00;101421.75;5059811;28;838;-83
2022/08/20 03:10:50;;;;;;;;;;;;;;;29.47;100.00;101416.44;5087317;28;1772;-82
2022/08/20 03:13:17;;;;;;;;;;;;;;;28.83;100.00;101413.22;5086755;28;1988;-85
2022/08/20 03:15:47;;;;;;;;;;;;;;;29.41;100.00;101426.53;5080013;28;913;-84
2022/08/20 03:18:14;;;;;;;;;;;;;;;28.58;100.00;101427.09;5088357;28;1871;-83
2022/08/20 03:20:40;;;;;;;;;;;;;;;28.92;100.00;101428.44;5095742;28;1287;-84
2022/08/20 03:23:06;;;;;;;;;;;;;;;29.46;100.00;101429.44;5095751;28;2012;-84
2022/08/20 03:25:33;;;;;;;;;;;;;;;28.58;100.00;101427.91;5099968;28;1137;-85
2022/08/20 03:27:59;;;;;;;;;;;;;;;29.00;100.00;101421.75;5099129;28;2024;-84
2022/08/20 03:30:26;;;;;;;;;;;;;;;29.02;100.00;101422.38;5099123;28;1193;-83
2022/08/20 03:32:53;;;;;;;;;;;;;;;29.00;100.00;101430.88;5097265;28;1980;-83
2022/08/20 03:35:22;;;;;;;;;;;;;;;28.82;100.00;101428.09;5099959;28;814;-84
2022/08/20 03:37:48;;;;;;;;;;;;;;;28.17;100.00;101427.66;5099092;28;1902;-84
2022/08/20 03:40:18;;;;;;;;;;;;;;;28.24;100.00;101426.53;5098972;28;1926;-84
2022/08/20 03:42:44;;;;;;;;;;;;;;;28.43;100.00;101421.09;5098959;28;1985;-83
2022/08/20 03:45:12;;;;;;;;;;;;;;;28.66;100.00;101434.22;5099800;28;1134;-84
2022/08/20 03:47:40;;;;;;;;;;;;;;;28.83;100.00;101435.31;5076029;28;1957;-83
2022/08/20 03:50:08;;;;;;;;;;;;;;;28.11;100.00;101445.94;5058852;28;1934;-84
2022/08/20 03:52:35;;;;;;;;;;;;;;;28.00;100.00;101444.75;5077638;28;912;-83
2022/08/20 03:55:02;;;;;;;;;;;;;;;28.72;100.00;101441.59;5075824;28;1945;-83
2022/08/20 03:57:28;;;;;;;;;;;;;;;27.17;100.00;101441.22;5077870;28;908;-83
2022/08/20 03:59:54;;;;;;;;;;;;;;;28.39;100.00;101439.16;5076910;28;1893;-84
2022/08/20 04:02:20;;;;;;;;;;;;;;;28.01;100.00;101437.31;5057047;28;1932;-84
2022/08/20 04:04:46;;;;;;;;;;;;;;;28.92;100.00;101438.66;5067914;28;1847;-84
2022/08/20 04:07:17;;;;;;;;;;;;;;;29.47;100.00;101444.09;5078415;28;1944;-83
2022/08/20 04:09:43;;;;;;;;;;;;;;;28.49;100.00;101451.38;5078788;28;1938;-84
2022/08/20 04:12:12;;;;;;;;;;;;;;;29.46;100.00;101457.06;5061047;28;1926;-83
2022/08/20 04:14:39;;;;;;;;;;;;;;;28.29;100.00;101445.19;5080923;28;830;-83
2022/08/20 04:17:06;;;;;;;;;;;;;;;29.15;100.00;101444.31;5081129;28;1921;-84
2022/08/20 04:19:33;;;;;;;;;;;;;;;28.49;100.00;101442.25;5070374;28;1959;-83
2022/08/20 04:21:59;;;;;;;;;;;;;;;28.63;100.00;101441.06;5061968;28;1435;-83
2022/08/20 04:24:26;;;;;;;;;;;;;;;27.76;100.00;101442.00;5064404;28;1814;-83
2022/08/20 04:26:53;;;;;;;;;;;;;;;26.71;100.00;101444.94;5081231;28;877;-84
2022/08/20 04:29:21;;;;;;;;;;;;;;;27.32;100.00;101447.28;5080308;28;1390;-83
2022/08/20 04:31:47;;;;;;;;;;;;;;;27.78;100.00;101437.94;5079819;28;1279;-84
2022/08/20 04:34:15;;;;;;;;;;;;;;;28.99;100.00;101448.53;5076825;28;1978;-83
2022/08/20 04:36:41;;;;;;;;;;;;;;;29.30;100.00;101450.28;5081286;28;787;-83
2022/08/20 04:39:07;;;;;;;;;;;;;;;29.24;100.00;101459.50;5078182;28;1953;-83
2022/08/20 04:41:33;;;;;;;;;;;;;;;29.49;100.00;101466.84;5077604;28;1891;-83
2022/08/20 04:43:59;;;;;;;;;;;;;;;29.00;100.00;101461.25;5080123;28;905;-84
2022/08/20 04:46:27;;;;;;;;;;;;;;;29.37;100.00;101473.13;5079588;28;1246;-83
2022/08/20 04:48:54;;;;;;;;;;;;;;;29.52;100.00;101471.94;5080731;28;795;-84
2022/08/20 04:51:21;;;;;;;;;;;;;;;29.70;100.00;101475.50;5065080;28;1931;-84
2022/08/20 04:53:47;;;;;;;;;;;;;;;29.80;100.00;101471.31;5060321;28;787;-83
2022/08/20 04:56:13;;;;;;;;;;;;;;;28.97;100.00;101467.25;5059909;28;1871;-83
2022/08/20 04:58:40;;;;;;;;;;;;;;;28.56;100.00;101479.75;5073783;28;1947;-83
2022/08/20 05:01:09;;;;;;;;;;;;;;;28.09;100.00;101483.09;5079243;28;2028;-83
2022/08/20 05:03:37;;;;;;;;;;;;;;;27.98;100.00;101487.44;5077509;28;1896;-84
2022/08/20 05:06:05;;;;;;;;;;;;;;;28.07;100.00;101491.59;5077660;28;1828;-83
2022/08/20 05:08:32;;;;;;;;;;;;;;;28.53;100.00;101491.25;5080190;28;794;-84
2022/08/20 05:10:59;;;;;;;;;;;;;;;28.21;100.00;101493.19;5077030;28;1983;-84
2022/08/20 05:13:25;;;;;;;;;;;;;;;29.01;100.00;101496.13;5079868;28;905;-84
2022/08/20 05:15:51;;;;;;;;;;;;;;;28.23;100.00;101504.03;5076408;28;1929;-83
2022/08/20 05:18:21;;;;;;;;;;;;;;;28.36;100.00;101503.09;5070638;28;937;-84
2022/08/20 05:20:48;;;;;;;;;;;;;;;27.71;100.00;101500.53;5071973;28;1945;-84
2022/08/20 05:23:17;;;;;;;;;;;;;;;28.98;100.00;101498.47;5072702;28;1899;-84
2022/08/20 05:25:50;;;;;;;;;;;;;;;27.72;100.00;101504.97;5064073;28;1926;-83
2022/08/20 05:28:22;;;;;;;;;;;;;;;27.58;100.00;101509.69;5077258;28;1744;-84
2022/08/20 05:30:50;;;;;;;;;;;;;;;28.05;100.00;101512.22;5062452;28;1772;-85
2022/08/20 05:33:20;;;;;;;;;;;;;;;28.11;100.00;101508.53;5070692;28;1735;-84
2022/08/20 05:35:48;;;;;;;;;;;;;;;27.97;100.00;101514.16;5078703;28;928;-85
2022/08/20 05:38:17;;;;;;;;;;;;;;;27.49;100.00;101519.28;5077549;28;855;-84
2022/08/20 05:40:44;;;;;;;;;;;;;;;27.46;100.00;101522.47;5066555;28;1945;-84
2022/08/20 05:43:10;;;;;;;;;;;;;;;26.63;100.00;101524.97;5064925;28;1417;-85
2022/08/20 05:45:38;;;;;;;;;;;;;;;27.06;100.00;101524.53;5079540;28;936;-84
2022/08/20 05:48:16;;;;;;;;;;;;;;;28.22;100.00;101522.50;5079279;28;1921;-85
2022/08/20 05:50:44;;;;;;;;;;;;;;;27.92;100.00;101536.03;5076330;28;2023;-85
2022/08/20 05:53:11;;;;;;;;;;;;;;;28.01;100.00;101522.81;5078937;28;799;-84
2022/08/20 05:55:38;;;;;;;;;;;;;;;27.11;100.00;101527.47;5070741;28;2009;-85
2022/08/20 05:58:07;;;;;;;;;;;;;;;26.96;100.00;101527.69;5057731;28;908;-84
2022/08/20 06:00:34;;;;;;;;;;;;;;;26.47;100.00;101523.50;5062891;28;1961;-85
2022/08/20 06:05:51;;;;;;;;;;;;;;;26.72;100.00;101517.34;5064283;28;740;-84
2022/08/20 06:08:17;;;;;;;;;;;;;;;26.18;100.00;101523.88;5058750;28;1900;-84
2022/08/20 06:10:43;;;;;;;;;;;;;;;26.83;100.00;101522.19;5060265;28;1907;-84
2022/08/20 06:13:09;;;;;;;;;;;;;;;26.59;100.00;101523.69;5057653;28;1892;-85
2022/08/20 06:15:35;;;;;;;;;;;;;;;26.48;100.00;101522.44;5057014;28;936;-84
2022/08/20 06:18:06;;;;;;;;;;;;;;;26.27;100.00;101522.63;5057908;28;1962;-85
2022/08/20 06:20:34;;;;;;;;;;;;;;;27.18;100.00;101519.19;5055946;28;1881;-85
2022/08/20 06:23:00;;;;;;;;;;;;;;;27.22;100.00;101514.91;5066310;28;1953;-85
2022/08/20 06:25:28;;;;;;;;;;;;;;;25.74;100.00;101528.00;5065856;28;1966;-85
2022/08/20 06:27:54;;;;;;;;;;;;;;;26.73;100.00;101519.03;5073341;28;1871;-85
2022/08/20 06:30:20;;;;;;;;;;;;;;;27.78;100.00;101515.13;5065796;28;1939;-85
2022/08/20 06:32:46;;;;;;;;;;;;;;;26.49;100.00;101515.03;5069973;28;1594;-85
2022/08/20 06:35:14;;;;;;;;;;;;;;;27.31;100.00;101508.94;5061811;28;1918;-85
2022/08/20 06:37:41;;;;;;;;;;;;;;;26.51;100.00;101515.66;5057715;28;1899;-85
2022/08/20 06:40:19;;;;;;;;;;;;;;;26.54;100.00;101520.72;5055758;28;1879;-85
2022/08/20 06:42:45;;;;;;;;;;;;;;;27.40;100.00;101518.66;5057870;28;1860;-84
2022/08/20 06:45:14;;;;;;;;;;;;;;;26.50;100.00;101520.31;5055852;28;854;-84
2022/08/20 06:47:45;;;;;;;;;;;;;;;26.75;100.00;101522.44;5055053;28;1941;-85
2022/08/20 06:50:14;;;;;;;;;;;;;;;26.48;100.00;101527.94;5055073;28;1232;-84
2022/08/20 06:52:41;;;;;;;;;;;;;;;26.78;100.00;101528.34;5056919;28;1963;-85
2022/08/20 06:55:09;;;;;;;;;;;;;;;26.62;100.00;101533.44;5073417;28;1825;-85
2022/08/20 06:57:37;;;;;;;;;;;;;;;25.86;100.00;101534.59;5075779;28;1554;-85
2022/08/20 07:00:09;;;;;;;;;;;;;;;27.43;100.00;101531.16;5074843;28;1866;-85
2022/08/20 07:02:36;;;;;;;;;;;;;;;27.37;100.00;101529.28;5057145;28;1955;-85
2022/08/20 07:05:04;;;;;;;;;;;;;;;27.26;100.00;101538.25;5059705;28;1843;-84
2022/08/20 07:07:30;;;;;;;;;;;;;;;27.67;100.00;101533.22;5054200;28;1887;-85
2022/08/20 07:10:07;;;;;;;;;;;;;;;27.86;100.00;101530.56;5059794;28;1866;-84
2022/08/20 07:12:35;;;;;;;;;;;;;;;28.30;100.00;101535.19;5055793;28;1874;-87
2022/08/20 07:15:03;;;;;;;;;;;;;;;27.47;100.00;101537.09;5075502;28;1315;-85
2022/08/20 07:17:29;;;;;;;;;;;;;;;28.27;100.00;101533.69;5076599;28;1915;-85
2022/08/20 07:19:55;;;;;;;;;;;;;;;27.88;100.00;101536.72;5077769;28;1882;-85
2022/08/20 07:22:22;;;;;;;;;;;;;;;27.65;100.00;101540.00;5075638;28;1925;-85
2022/08/20 07:24:48;;;;;;;;;;;;;;;29.54;91.32;101541.66;5074632;28;1969;-85
2022/08/20 07:27:22;;;;;;;;;;;;;;;28.57;88.74;101555.13;5056233;28;842;-85
2022/08/20 07:32:35;;;;;;;;;;;;;;;27.54;100.00;101555.31;5077780;28;540;-85
2022/08/20 07:35:05;;;;;;;;;;;;;;;28.71;91.77;101559.50;5075315;28;1946;-85
2022/08/20 07:37:31;;;;;;;;;;;;;;;28.90;86.00;101556.78;5078170;28;783;-85
2022/08/20 07:39:57;;;;;;;;;;;;;;;28.75;88.57;101557.09;5076613;28;1903;-85
2022/08/20 07:42:23;;;;;;;;;;;;;;;28.18;91.17;101559.84;5075521;28;1617;-85
2022/08/20 07:44:49;;;;;;;;;;;;;;;28.40;90.16;101557.59;5071904;28;1565;-85
2022/08/20 07:47:18;;;;;;;;;;;;;;;27.82;92.61;101562.41;5076277;28;1938;-85
2022/08/20 07:49:44;;;;;;;;;;;;;;;28.01;87.25;101562.28;5070536;28;1974;-84
2022/08/20 07:52:12;;;;;;;;;;;;;;;27.76;80.68;101566.06;5056443;28;1173;-84
2022/08/20 07:54:38;;;;;;;;;;;;;;;28.62;73.13;101571.03;5061723;28;1843;-84
2022/08/20 07:57:04;;;;;;;;;;;;;;;28.63;79.32;101572.72;5075407;28;1928;-85
2022/08/20 07:59:30;;;;;;;;;;;;;;;29.14;70.99;101572.47;5071870;28;1935;-84
2022/08/20 08:01:57;;;;;;;;;;;;;;;27.90;75.56;101574.03;5061458;28;2045;-84
2022/08/20 08:04:24;;;;;;;;;;;;;;;27.85;70.18;101579.38;5071309;28;1962;-84
2022/08/20 08:06:51;;;;;;;;;;;;;;;28.01;67.11;101575.22;5057185;28;1917;-84
2022/08/20 08:09:17;;;;;;;;;;;;;;;27.69;68.08;101571.59;5056525;28;799;-84
2022/08/20 08:11:48;;;;;;;;;;;;;;;27.93;67.50;101581.03;5071200;28;1883;-84
2022/08/20 08:14:22;;;;;;;;;;;;;;;28.83;63.60;101578.91;5079703;28;1679;-85
2022/08/20 08:16:48;;;;;;;;;;;;;;;27.40;71.92;101583.94;5074899;28;1945;-84
2022/08/20 08:19:16;;;;;;;;;;;;;;;29.22;63.24;101576.88;5078405;28;876;-84
2022/08/20 08:21:43;;;;;;;;;;;;;;;29.67;63.59;101582.94;5077688;28;2041;-84
2022/08/20 08:24:10;;;;;;;;;;;;;;;29.68;57.23;101585.47;5077130;28;792;-84
2022/08/20 08:26:36;;;;;;;;;;;;;;;28.73;56.88;101593.25;5078237;28;1977;-84
2022/08/20 08:29:06;;;;;;;;;;;;;;;28.86;56.81;101587.59;5075542;28;1961;-84
2022/08/20 08:31:33;;;;;;;;;;;;;;;29.58;54.01;101598.16;5056891;28;1319;-84
2022/08/20 08:33:59;;;;;;;;;;;;;;;28.56;52.67;101600.38;5063029;28;1549;-84
2022/08/20 08:36:26;;;;;;;;;;;;;;;28.93;53.96;101601.38;5075583;28;1859;-84
2022/08/20 08:38:53;;;;;;;;;;;;;;;28.00;54.50;101601.13;5069550;28;1933;-84
2022/08/20 08:41:30;;;;;;;;;;;;;;;28.43;52.32;101598.56;5058050;28;1949;-83
2022/08/20 08:44:04;;;;;;;;;;;;;;;28.27;55.65;101608.19;5075667;28;1887;-83
2022/08/20 08:46:39;;;;;;;;;;;;;;;28.17;57.50;101604.22;5081161;28;528;-84
2022/08/20 08:49:05;;;;;;;;;;;;;;;28.89;55.98;101610.31;5078859;28;2009;-84
2022/08/20 08:51:41;;;;;;;;;;;;;;;28.93;55.17;101609.66;5066547;28;1974;-84
2022/08/20 08:54:12;;;;;;;;;;;;;;;27.51;55.61;101616.34;5065583;28;1699;-84
2022/08/20 08:56:38;;;;;;;;;;;;;;;27.35;55.15;101605.81;5080685;28;1469;-84
2022/08/20 08:59:07;;;;;;;;;;;;;;;28.52;54.15;101604.66;5076840;28;831;-83
2022/08/20 09:01:42;;;;;;;;;;;;;;;28.95;56.03;101612.19;5074212;28;1893;-84
2022/08/20 09:04:08;;;;;;;;;;;;;;;29.55;55.46;101610.53;5067285;28;1374;-84
2022/08/20 09:06:34;;;;;;;;;;;;;;;29.10;50.07;101610.78;5076846;28;1533;-83
2022/08/20 09:09:04;;;;;;;;;;;;;;;29.59;53.31;101613.66;5077173;28;871;-83
2022/08/20 09:11:31;;;;;;;;;;;;;;;29.15;46.59;101615.63;5076484;28;1227;-83
2022/08/20 09:13:57;;;;;;;;;;;;;;;28.54;53.29;101622.69;5079360;28;794;-83
2022/08/20 09:16:26;;;;;;;;;;;;;;;29.42;47.95;101624.47;5078779;28;723;-83
2022/08/20 09:18:52;;;;;;;;;;;;;;;28.92;48.13;101621.78;5076979;28;902;-84
2022/08/20 09:21:18;;;;;;;;;;;;;;;28.88;45.34;101627.94;5077738;28;1885;-84
2022/08/20 09:23:44;;;;;;;;;;;;;;;30.07;43.55;101621.19;5079313;28;796;-83
2022/08/20 09:26:10;;;;;;;;;;;;;;;28.18;45.10;101614.19;5079292;28;945;-83
2022/08/20 09:28:36;;;;;;;;;;;;;;;27.88;48.06;101614.75;5081784;28;880;-83
2022/08/20 09:31:03;;;;;;;;;;;;;;;28.88;45.64;101620.50;5081804;28;1192;-83
2022/08/20 09:33:29;;;;;;;;;;;;;;;29.10;44.21;101624.59;5082772;28;829;-83
2022/08/20 09:35:55;;;;;;;;;;;;;;;28.90;45.45;101625.81;5082734;28;974;-83
2022/08/20 09:38:21;;;;;;;;;;;;;;;28.65;43.85;101631.31;5077214;28;881;-83
2022/08/20 09:40:47;;;;;;;;;;;;;;;28.60;46.02;101626.44;5077491;28;1898;-83
2022/08/20 09:43:13;;;;;;;;;;;;;;;28.45;46.28;101629.53;5079414;28;909;-83
2022/08/20 09:45:39;;;;;;;;;;;;;;;28.80;43.21;101635.44;5079405;28;842;-83
2022/08/20 09:48:05;;;;;;;;;;;;;;;28.67;45.19;101623.66;5079643;28;809;-82
2022/08/20 09:50:34;;;;;;;;;;;;;;;28.42;46.47;101632.75;5080477;28;1238;-83
2022/08/20 09:53:02;;;;;;;;;;;;;;;27.74;46.53;101631.59;5081054;28;1553;-83
2022/08/20 09:55:38;;;;;;;;;;;;;;;28.40;46.96;101634.03;5081619;28;928;-83
2022/08/20 09:58:32;;;;;;;;;;;;;;;29.13;46.25;101632.41;5084231;28;526;-83
2022/08/20 10:01:05;;;;;;;;;;;;;;;30.37;46.04;101632.25;5081938;28;1957;-83
2022/08/20 10:03:31;;;;;;;;;;;;;;;28.46;45.61;101639.50;5084564;28;699;-83
2022/08/20 10:05:58;;;;;;;;;;;;;;;30.43;41.98;101634.06;5082562;28;925;-83
2022/08/20 10:08:24;;;;;;;;;;;;;;;31.02;36.61;101635.06;5084636;28;887;-83
2022/08/20 10:10:50;;;;;;;;;;;;;;;30.77;37.94;101635.25;5084211;28;1240;-83
2022/08/20 10:13:16;;;;;;;;;;;;;;;31.71;39.36;101638.91;5084230;28;802;-84
2022/08/20 10:15:42;;;;;;;;;;;;;;;30.45;40.12;101634.69;5082152;28;889;-83
2022/08/20 10:18:09;;;;;;;;;;;;;;;28.95;40.74;101645.34;5081039;28;771;-83
2022/08/20 10:20:38;;;;;;;;;;;;;;;29.92;39.40;101640.94;5080584;28;1937;-83
2022/08/20 10:23:04;;;;;;;;;;;;;;;29.33;40.26;101645.19;5081711;28;758;-83
2022/08/20 10:25:30;;;;;;;;;;;;;;;30.69;39.44;101642.00;5082951;28;911;-82
2022/08/20 10:27:56;;;;;;;;;;;;;;;30.58;38.89;101651.09;5080891;28;972;-82
2022/08/20 10:30:22;;;;;;;;;;;;;;;30.81;38.45;101653.13;5082509;28;1228;-82
2022/08/20 10:32:48;;;;;;;;;;;;;;;32.34;36.93;101649.09;5079612;28;939;-83
2022/08/20 10:35:14;;;;;;;;;;;;;;;32.24;35.78;101638.59;5079738;28;859;-82
2022/08/20 10:37:40;;;;;;;;;;;;;;;32.17;36.88;101629.59;5079160;28;870;-82
2022/08/20 10:40:07;;;;;;;;;;;;;;;31.26;37.90;101647.84;5080456;28;1874;-82
2022/08/20 10:42:33;;;;;;;;;;;;;;;31.98;36.81;101644.78;5079871;28;1940;-83
2022/08/20 10:44:59;;;;;;;;;;;;;;;30.08;39.45;101645.00;5078849;28;782;-82
2022/08/20 10:47:29;;;;;;;;;;;;;;;31.79;37.57;101644.09;5079674;28;795;-82
2022/08/20 10:49:58;;;;;;;;;;;;;;;33.24;36.01;101650.13;5081876;28;747;-82
2022/08/20 10:52:24;;;;;;;;;;;;;;;34.94;34.95;101642.47;5080407;28;1296;-83
2022/08/20 10:54:52;;;;;;;;;;;;;;;35.81;34.25;101641.06;5082807;28;884;-83
2022/08/20 10:57:21;;;;;;;;;;;;;;;35.27;32.58;101641.28;5074242;28;3208;-83
2022/08/20 10:59:48;;;;;;;;;;;;;;;32.63;35.86;101640.75;5065239;28;542;-83
2022/08/20 11:02:15;;;;;;;;;;;;;;;32.67;34.97;101645.56;5111322;23;1940;-83
2022/08/20 11:04:42;;;;;;;;;;;;;;;32.85;35.53;101646.44;5045923;28;735;-83
2022/08/20 11:07:14;;;;;;;;;;;;;;;33.79;33.93;101638.94;5048229;28;1197;-83
2022/08/20 11:09:41;;;;;;;;;;;;;;;33.72;33.16;101641.06;5036750;28;2668;-83
2022/08/20 11:12:07;;;;;;;;;;;;;;;35.05;33.22;101647.00;5027338;28;1316;-83
2022/08/20 11:14:33;;;;;;;;;;;;;;;34.32;31.92;101647.69;5045855;28;1810;-84
2022/08/20 11:17:00;;;;;;;;;;;;;;;34.11;32.97;101653.00;5049363;28;859;-84
2022/08/20 11:19:26;;;;;;;;;;;;;;;34.87;33.20;101655.75;5052363;28;781;-83
2022/08/20 11:21:52;;;;;;;;;;;;;;;33.36;32.45;101657.31;5053116;28;1977;-83
2022/08/20 11:24:18;;;;;;;;;;;;;;;32.69;32.51;101651.69;5052537;28;952;-84
2022/08/20 11:26:49;;;;;;;;;;;;;;;32.10;32.17;101658.59;5048857;28;899;-84
2022/08/20 11:29:16;;;;;;;;;;;;;;;31.28;33.11;101667.91;5051450;28;905;-84
2022/08/20 11:31:42;;;;;;;;;;;;;;;30.42;35.19;101657.31;5055942;28;1240;-83
2022/08/20 11:34:08;;;;;;;;;;;;;;;31.25;35.39;101660.03;5056674;28;929;-83
2022/08/20 11:36:35;;;;;;;;;;;;;;;30.52;36.25;101661.19;5058679;28;1015;-83
2022/08/20 11:39:01;;;;;;;;;;;;;;;31.19;36.60;101662.91;5057946;28;1066;-83
2022/08/20 11:41:27;;;;;;;;;;;;;;;31.10;36.39;101656.88;5055258;28;1870;-84
2022/08/20 11:43:53;;;;;;;;;;;;;;;31.51;36.08;101655.94;5055687;28;875;-83
2022/08/20 11:46:19;;;;;;;;;;;;;;;31.22;36.91;101668.00;5055411;28;1088;-82
2022/08/20 11:48:45;;;;;;;;;;;;;;;33.15;33.76;101646.09;5057344;28;980;-82
2022/08/20 11:51:11;;;;;;;;;;;;;;;35.16;32.87;101649.88;5053009;28;1232;-82
2022/08/20 11:53:37;;;;;;;;;;;;;;;36.54;29.82;101642.97;5057872;28;1043;-83
2022/08/20 11:56:03;;;;;;;;;;;;;;;35.73;29.69;101644.38;5056177;28;922;-83
2022/08/20 11:58:29;;;;;;;;;;;;;;;33.27;33.33;101649.63;5040169;28;858;-84
2022/08/20 12:00:55;;;;;;;;;;;;;;;35.75;31.44;101646.88;5038454;28;1902;-83
2022/08/20 12:03:21;;;;;;;;;;;;;;;37.11;29.86;101644.66;5039661;28;925;-83
2022/08/20 12:05:47;;;;;;;;;;;;;;;37.68;28.82;101649.03;5040429;28;867;-84
2022/08/20 12:08:15;;;;;;;;;;;;;;;39.23;26.10;101646.63;5040812;28;804;-84
2022/08/20 12:10:41;;;;;;;;;;;;;;;38.85;26.29;101648.41;5039543;28;1200;-84
2022/08/20 12:13:07;;;;;;;;;;;;;;;38.62;25.15;101649.94;5040209;28;799;-84
2022/08/20 12:15:35;;;;;;;;;;;;;;;41.67;25.23;101657.00;5038359;28;897;-84
2022/08/20 12:18:06;;;;;;;;;;;;;;;40.78;24.04;101659.22;5038783;28;839;-84
2022/08/20 12:20:32;;;;;;;;;;;;;;;37.47;27.19;101657.50;5037363;28;1957;-85
2022/08/20 12:22:58;;;;;;;;;;;;;;;35.41;28.41;101660.41;5037460;28;933;-84
2022/08/20 12:25:25;;;;;;;;;;;;;;;36.48;28.49;101653.31;5039473;28;855;-83
2022/08/20 12:27:51;;;;;;;;;;;;;;;35.98;29.09;101663.19;5039386;28;899;-83
2022/08/20 12:30:19;;;;;;;;;;;;;;;35.75;29.29;101667.25;5044269;28;1196;-83
2022/08/20 12:32:46;;;;;;;;;;;;;;;35.75;29.78;101670.06;5043768;28;877;-83
2022/08/20 12:35:14;;;;;;;;;;;;;;;38.74;28.68;101664.44;5044105;28;839;-82
2022/08/20 12:37:41;;;;;;;;;;;;;;;38.61;26.83;101659.47;5043608;28;729;-83
2022/08/20 12:40:12;;;;;;;;;;;;;;;36.61;29.73;101668.69;5044155;28;910;-82
2022/08/20 12:42:38;;;;;;;;;;;;;;;35.17;29.53;101663.53;5044258;28;1902;-83
2022/08/20 12:45:05;;;;;;;;;;;;;;;33.61;31.41;101669.88;5042770;28;892;-83
2022/08/20 12:47:37;;;;;;;;;;;;;;;32.88;33.00;101668.16;5043110;28;737;-82
2022/08/20 12:50:08;;;;;;;;;;;;;;;30.85;34.26;101670.94;5044174;28;553;-83
2022/08/20 12:52:34;;;;;;;;;;;;;;;33.03;32.68;101665.63;5044462;28;851;-82
2022/08/20 12:55:00;;;;;;;;;;;;;;;33.56;31.98;101680.94;5042372;28;807;-82